sensor_id;sensor_type;location;lat;lon;timestamp;temperature;humidity
52495;DHT22;38405;53.212;5.660;2022-08-25T00:01:30;20.30;99.90
52495;DHT22;38405;53.212;5.660;2022-08-25T00:03:57;20.30;99.90
52495;DHT22;38405;53.212;5.660;2022-08-25T00:06:23;20.30;99.90
52495;DHT22;38405;53.212;5.660;2022-08-25T00:08:49;20.30;99.90
52495;DHT22;38405;53.212;5.660;2022-08-25T00:11:22;20.20;99.90
52495;DHT22;38405;53.212;5.660;2022-08-25T00:13:51;20.20;99.90
52495;DHT22;38405;53.212;5.660;2022-08-25T00:16:19;20.20;99.90
52495;DHT22;38405;53.212;5.660;2022-08-25T00:18:52;20.20;99.90
52495;DHT22;38405;53.212;5.660;2022-08-25T00:21:19;20.10;99.90
52495;DHT22;38405;53.212;5.660;2022-08-25T00:23:45;20.10;99.90
52495;DHT22;38405;53.212;5.660;2022-08-25T00:26:13;20.10;99.90
52495;DHT22;38405;53.212;5.660;2022-08-25T00:28:39;20.10;99.90
52495;DHT22;38405;53.212;5.660;2022-08-25T00:31:05;20.10;99.90
52495;DHT22;38405;53.212;5.660;2022-08-25T00:33:31;20.10;99.90
52495;DHT22;38405;53.212;5.660;2022-08-25T00:35:57;20.00;99.90
52495;DHT22;38405;53.212;5.660;2022-08-25T00:38:23;20.00;99.90
52495;DHT22;38405;53.212;5.660;2022-08-25T00:40:49;20.00;99.90
52495;DHT22;38405;53.212;5.660;2022-08-25T00:46:00;19.90;99.90
52495;DHT22;38405;53.212;5.660;2022-08-25T00:48:25;19.90;99.90
52495;DHT22;38405;53.212;5.660;2022-08-25T00:50:51;19.90;99.90
52495;DHT22;38405;53.212;5.660;2022-08-25T00:53:16;19.80;99.90
52495;DHT22;38405;53.212;5.660;2022-08-25T00:55:43;19.90;99.90
52495;DHT22;38405;53.212;5.660;2022-08-25T00:58:15;19.80;99.90
52495;DHT22;38405;53.212;5.660;2022-08-25T01:00:46;19.70;99.90
52495;DHT22;38405;53.212;5.660;2022-08-25T01:03:12;19.70;99.90
52495;DHT22;38405;53.212;5.660;2022-08-25T01:05:39;19.70;99.90
52495;DHT22;38405;53.212;5.660;2022-08-25T01:08:07;19.70;99.90
52495;DHT22;38405;53.212;5.660;2022-08-25T01:10:38;19.60;99.90
52495;DHT22;38405;53.212;5.660;2022-08-25T01:13:19;19.60;99.90
52495;DHT22;38405;53.212;5.660;2022-08-25T01:15:46;19.60;99.90
52495;DHT22;38405;53.212;5.660;2022-08-25T01:18:12;19.60;99.90
52495;DHT22;38405;53.212;5.660;2022-08-25T01:20:37;19.60;99.90
52495;DHT22;38405;53.212;5.660;2022-08-25T01:23:03;19.50;99.90
52495;DHT22;38405;53.212;5.660;2022-08-25T01:28:22;19.40;99.90
52495;DHT22;38405;53.212;5.660;2022-08-25T01:30:48;19.40;99.90
52495;DHT22;38405;53.212;5.660;2022-08-25T01:33:14;19.40;99.90
52495;DHT22;38405;53.212;5.660;2022-08-25T01:35:41;19.30;99.90
52495;DHT22;38405;53.212;5.660;2022-08-25T01:38:07;19.40;99.90
52495;DHT22;38405;53.212;5.660;2022-08-25T01:40:35;19.30;99.90
52495;DHT22;38405;53.212;5.660;2022-08-25T01:43:05;19.30;99.90
52495;DHT22;38405;53.212;5.660;2022-08-25T01:45:36;19.30;99.90
52495;DHT22;38405;53.212;5.660;2022-08-25T01:48:04;19.30;99.90
52495;DHT22;38405;53.212;5.660;2022-08-25T01:50:30;19.30;99.90
52495;DHT22;38405;53.212;5.660;2022-08-25T01:53:12;19.30;99.90
52495;DHT22;38405;53.212;5.660;2022-08-25T01:55:41;19.20;99.90
52495;DHT22;38405;53.212;5.660;2022-08-25T01:58:21;19.30;99.90
52495;DHT22;38405;53.212;5.660;2022-08-25T02:00:49;19.30;99.90
52495;DHT22;38405;53.212;5.660;2022-08-25T02:03:16;19.20;99.90
52495;DHT22;38405;53.212;5.660;2022-08-25T02:05:42;19.30;99.90
52495;DHT22;38405;53.212;5.660;2022-08-25T02:08:08;19.30;99.90
52495;DHT22;38405;53.212;5.660;2022-08-25T02:10:34;19.30;99.90
52495;DHT22;38405;53.212;5.660;2022-08-25T02:13:00;19.40;99.90
52495;DHT22;38405;53.212;5.660;2022-08-25T02:15:25;19.30;99.90
52495;DHT22;38405;53.212;5.660;2022-08-25T02:17:51;19.40;99.90
52495;DHT22;38405;53.212;5.660;2022-08-25T02:20:17;19.40;99.90
52495;DHT22;38405;53.212;5.660;2022-08-25T02:22:43;19.40;99.90
52495;DHT22;38405;53.212;5.660;2022-08-25T02:25:09;19.40;99.90
52495;DHT22;38405;53.212;5.660;2022-08-25T02:27:35;19.50;99.90
52495;DHT22;38405;53.212;5.660;2022-08-25T02:30:02;19.50;99.90
52495;DHT22;38405;53.212;5.660;2022-08-25T02:32:28;19.50;99.90
52495;DHT22;38405;53.212;5.660;2022-08-25T02:34:54;19.60;99.90
52495;DHT22;38405;53.212;5.660;2022-08-25T02:37:19;19.60;99.90
52495;DHT22;38405;53.212;5.660;2022-08-25T02:39:45;19.60;99.90
52495;DHT22;38405;53.212;5.660;2022-08-25T02:42:11;19.60;99.90
52495;DHT22;38405;53.212;5.660;2022-08-25T02:44:36;19.60;99.90
52495;DHT22;38405;53.212;5.660;2022-08-25T02:47:02;19.40;99.90
52495;DHT22;38405;53.212;5.660;2022-08-25T02:49:28;19.50;99.90
52495;DHT22;38405;53.212;5.660;2022-08-25T02:51:54;19.50;99.90
52495;DHT22;38405;53.212;5.660;2022-08-25T02:54:20;19.30;99.90
52495;DHT22;38405;53.212;5.660;2022-08-25T02:56:47;19.30;99.90
52495;DHT22;38405;53.212;5.660;2022-08-25T02:59:15;19.30;99.90
52495;DHT22;38405;53.212;5.660;2022-08-25T03:01:42;19.20;99.90
52495;DHT22;38405;53.212;5.660;2022-08-25T03:04:08;19.10;99.90
52495;DHT22;38405;53.212;5.660;2022-08-25T03:06:34;19.00;99.90
52495;DHT22;38405;53.212;5.660;2022-08-25T03:09:00;19.00;99.90
52495;DHT22;38405;53.212;5.660;2022-08-25T03:11:26;19.00;99.90
52495;DHT22;38405;53.212;5.660;2022-08-25T03:13:53;19.00;99.90
52495;DHT22;38405;53.212;5.660;2022-08-25T03:16:19;19.00;99.90
52495;DHT22;38405;53.212;5.660;2022-08-25T03:18:45;19.00;99.90
52495;DHT22;38405;53.212;5.660;2022-08-25T03:21:11;19.10;99.90
52495;DHT22;38405;53.212;5.660;2022-08-25T03:23:39;19.00;99.90
52495;DHT22;38405;53.212;5.660;2022-08-25T03:26:06;19.00;99.90
52495;DHT22;38405;53.212;5.660;2022-08-25T03:28:50;19.00;99.90
52495;DHT22;38405;53.212;5.660;2022-08-25T03:31:16;19.00;99.90
52495;DHT22;38405;53.212;5.660;2022-08-25T03:33:41;18.90;99.90
52495;DHT22;38405;53.212;5.660;2022-08-25T03:36:08;18.90;99.90
52495;DHT22;38405;53.212;5.660;2022-08-25T03:38:36;18.90;99.90
52495;DHT22;38405;53.212;5.660;2022-08-25T03:41:11;18.90;99.90
52495;DHT22;38405;53.212;5.660;2022-08-25T03:43:36;18.80;99.90
52495;DHT22;38405;53.212;5.660;2022-08-25T03:46:03;18.80;99.90
52495;DHT22;38405;53.212;5.660;2022-08-25T03:48:28;18.90;99.90
52495;DHT22;38405;53.212;5.660;2022-08-25T03:50:54;18.90;99.90
52495;DHT22;38405;53.212;5.660;2022-08-25T03:53:19;18.90;99.90
52495;DHT22;38405;53.212;5.660;2022-08-25T03:55:45;18.80;99.90
52495;DHT22;38405;53.212;5.660;2022-08-25T03:58:11;18.90;99.90
52495;DHT22;38405;53.212;5.660;2022-08-25T04:00:37;18.80;99.90
52495;DHT22;38405;53.212;5.660;2022-08-25T04:03:02;18.80;99.90
52495;DHT22;38405;53.212;5.660;2022-08-25T04:05:28;18.80;99.90
52495;DHT22;38405;53.212;5.660;2022-08-25T04:07:54;18.80;99.90
52495;DHT22;38405;53.212;5.660;2022-08-25T04:10:20;18.80;99.90
52495;DHT22;38405;53.212;5.660;2022-08-25T04:12:45;18.70;99.90
52495;DHT22;38405;53.212;5.660;2022-08-25T04:15:13;18.80;99.90
52495;DHT22;38405;53.212;5.660;2022-08-25T04:17:39;18.80;99.90
52495;DHT22;38405;53.212;5.660;2022-08-25T04:20:06;18.80;99.90
52495;DHT22;38405;53.212;5.660;2022-08-25T04:22:33;18.80;99.90
52495;DHT22;38405;53.212;5.660;2022-08-25T04:24:59;18.80;99.90
52495;DHT22;38405;53.212;5.660;2022-08-25T04:27:24;18.80;99.90
52495;DHT22;38405;53.212;5.660;2022-08-25T04:29:50;18.70;99.90
52495;DHT22;38405;53.212;5.660;2022-08-25T04:32:15;18.70;99.90
52495;DHT22;38405;53.212;5.660;2022-08-25T04:34:41;18.60;99.90
52495;DHT22;38405;53.212;5.660;2022-08-25T04:37:07;18.50;99.90
52495;DHT22;38405;53.212;5.660;2022-08-25T04:39:34;18.50;99.90
52495;DHT22;38405;53.212;5.660;2022-08-25T04:42:00;18.60;99.90
52495;DHT22;38405;53.212;5.660;2022-08-25T04:44:27;18.60;99.90
52495;DHT22;38405;53.212;5.660;2022-08-25T04:46:52;18.60;99.90
52495;DHT22;38405;53.212;5.660;2022-08-25T04:49:18;18.70;99.90
52495;DHT22;38405;53.212;5.660;2022-08-25T04:51:44;18.50;99.90
52495;DHT22;38405;53.212;5.660;2022-08-25T04:54:12;18.50;99.90
52495;DHT22;38405;53.212;5.660;2022-08-25T04:56:41;18.50;99.90
52495;DHT22;38405;53.212;5.660;2022-08-25T04:59:10;18.50;99.90
52495;DHT22;38405;53.212;5.660;2022-08-25T05:01:39;18.50;99.90
52495;DHT22;38405;53.212;5.660;2022-08-25T05:04:07;18.50;99.90
52495;DHT22;38405;53.212;5.660;2022-08-25T05:06:33;18.60;99.90
52495;DHT22;38405;53.212;5.660;2022-08-25T05:08:59;18.60;99.90
52495;DHT22;38405;53.212;5.660;2022-08-25T05:11:26;18.60;99.90
52495;DHT22;38405;53.212;5.660;2022-08-25T05:13:54;18.60;99.90
52495;DHT22;38405;53.212;5.660;2022-08-25T05:16:21;18.70;99.90
52495;DHT22;38405;53.212;5.660;2022-08-25T05:18:48;18.70;99.90
52495;DHT22;38405;53.212;5.660;2022-08-25T05:21:18;18.70;99.90
52495;DHT22;38405;53.212;5.660;2022-08-25T05:23:44;18.70;99.90
52495;DHT22;38405;53.212;5.660;2022-08-25T05:26:30;18.80;99.90
52495;DHT22;38405;53.212;5.660;2022-08-25T05:28:58;18.80;99.90
52495;DHT22;38405;53.212;5.660;2022-08-25T05:31:25;18.90;99.90
52495;DHT22;38405;53.212;5.660;2022-08-25T05:33:51;19.00;99.90
52495;DHT22;38405;53.212;5.660;2022-08-25T05:36:21;19.10;99.90
52495;DHT22;38405;53.212;5.660;2022-08-25T05:38:48;19.10;99.90
52495;DHT22;38405;53.212;5.660;2022-08-25T05:41:16;19.10;99.90
52495;DHT22;38405;53.212;5.660;2022-08-25T05:43:44;19.40;99.90
52495;DHT22;38405;53.212;5.660;2022-08-25T05:46:11;19.30;99.90
52495;DHT22;38405;53.212;5.660;2022-08-25T05:48:37;19.40;99.90
52495;DHT22;38405;53.212;5.660;2022-08-25T05:51:08;19.50;99.90
52495;DHT22;38405;53.212;5.660;2022-08-25T05:53:35;19.60;99.90
52495;DHT22;38405;53.212;5.660;2022-08-25T05:56:01;19.70;99.90
52495;DHT22;38405;53.212;5.660;2022-08-25T05:58:28;19.80;99.90
52495;DHT22;38405;53.212;5.660;2022-08-25T06:00:55;19.80;99.90
52495;DHT22;38405;53.212;5.660;2022-08-25T06:03:21;19.90;99.90
52495;DHT22;38405;53.212;5.660;2022-08-25T06:05:47;20.00;99.90
52495;DHT22;38405;53.212;5.660;2022-08-25T06:08:13;20.10;99.90
52495;DHT22;38405;53.212;5.660;2022-08-25T06:10:38;20.30;99.90
52495;DHT22;38405;53.212;5.660;2022-08-25T06:13:04;20.50;99.90
52495;DHT22;38405;53.212;5.660;2022-08-25T06:15:30;20.70;99.90
52495;DHT22;38405;53.212;5.660;2022-08-25T06:17:56;20.90;99.90
52495;DHT22;38405;53.212;5.660;2022-08-25T06:20:28;20.90;99.90
52495;DHT22;38405;53.212;5.660;2022-08-25T06:22:55;20.90;99.90
52495;DHT22;38405;53.212;5.660;2022-08-25T06:25:23;21.00;99.90
52495;DHT22;38405;53.212;5.660;2022-08-25T06:27:49;21.10;99.90
52495;DHT22;38405;53.212;5.660;2022-08-25T06:30:17;21.30;99.90
52495;DHT22;38405;53.212;5.660;2022-08-25T06:32:43;21.50;99.90
52495;DHT22;38405;53.212;5.660;2022-08-25T06:35:18;21.60;99.90
52495;DHT22;38405;53.212;5.660;2022-08-25T06:37:44;21.80;99.90
52495;DHT22;38405;53.212;5.660;2022-08-25T06:40:11;21.90;99.90
52495;DHT22;38405;53.212;5.660;2022-08-25T06:42:38;21.80;99.90
52495;DHT22;38405;53.212;5.660;2022-08-25T06:45:04;21.80;99.90
52495;DHT22;38405;53.212;5.660;2022-08-25T06:47:31;21.70;99.90
52495;DHT22;38405;53.212;5.660;2022-08-25T06:49:56;21.70;99.90
52495;DHT22;38405;53.212;5.660;2022-08-25T06:52:22;21.80;99.90
52495;DHT22;38405;53.212;5.660;2022-08-25T06:54:48;22.10;99.90
52495;DHT22;38405;53.212;5.660;2022-08-25T06:57:14;23.20;99.90
52495;DHT22;38405;53.212;5.660;2022-08-25T06:59:40;24.00;99.90
52495;DHT22;38405;53.212;5.660;2022-08-25T07:02:06;24.70;99.90
52495;DHT22;38405;53.212;5.660;2022-08-25T07:04:34;25.30;99.90
52495;DHT22;38405;53.212;5.660;2022-08-25T07:07:00;25.70;99.90
52495;DHT22;38405;53.212;5.660;2022-08-25T07:09:26;26.10;99.90
52495;DHT22;38405;53.212;5.660;2022-08-25T07:11:51;26.60;99.90
52495;DHT22;38405;53.212;5.660;2022-08-25T07:14:18;26.90;99.90
52495;DHT22;38405;53.212;5.660;2022-08-25T07:16:45;27.30;99.90
52495;DHT22;38405;53.212;5.660;2022-08-25T07:19:11;27.50;99.90
52495;DHT22;38405;53.212;5.660;2022-08-25T07:21:38;28.00;99.90
52495;DHT22;38405;53.212;5.660;2022-08-25T07:24:10;28.20;99.90
52495;DHT22;38405;53.212;5.660;2022-08-25T07:26:38;28.50;99.90
52495;DHT22;38405;53.212;5.660;2022-08-25T07:29:08;28.70;99.10
52495;DHT22;38405;53.212;5.660;2022-08-25T07:31:34;28.80;98.80
52495;DHT22;38405;53.212;5.660;2022-08-25T07:33:59;28.90;99.10
52495;DHT22;38405;53.212;5.660;2022-08-25T07:36:44;29.20;99.30
52495;DHT22;38405;53.212;5.660;2022-08-25T07:39:09;29.50;98.40
52495;DHT22;38405;53.212;5.660;2022-08-25T07:41:37;29.70;98.40
52495;DHT22;38405;53.212;5.660;2022-08-25T07:44:05;29.90;97.30
52495;DHT22;38405;53.212;5.660;2022-08-25T07:46:31;29.90;97.80
52495;DHT22;38405;53.212;5.660;2022-08-25T07:48:56;30.20;97.30
52495;DHT22;38405;53.212;5.660;2022-08-25T07:51:22;30.40;97.50
52495;DHT22;38405;53.212;5.660;2022-08-25T07:53:48;30.80;97.00
52495;DHT22;38405;53.212;5.660;2022-08-25T07:56:15;31.10;96.00
52495;DHT22;38405;53.212;5.660;2022-08-25T07:58:42;31.20;96.20
52495;DHT22;38405;53.212;5.660;2022-08-25T08:01:16;31.40;95.70
52495;DHT22;38405;53.212;5.660;2022-08-25T08:03:42;31.30;94.40
52495;DHT22;38405;53.212;5.660;2022-08-25T08:06:09;31.40;95.50
52495;DHT22;38405;53.212;5.660;2022-08-25T08:08:38;31.60;95.10
52495;DHT22;38405;53.212;5.660;2022-08-25T08:11:04;31.60;94.30
52495;DHT22;38405;53.212;5.660;2022-08-25T08:13:31;31.50;94.90
52495;DHT22;38405;53.212;5.660;2022-08-25T08:15:57;31.60;94.60
52495;DHT22;38405;53.212;5.660;2022-08-25T08:18:23;31.80;94.30
52495;DHT22;38405;53.212;5.660;2022-08-25T08:20:48;31.90;94.40
52495;DHT22;38405;53.212;5.660;2022-08-25T08:23:15;32.20;94.40
52495;DHT22;38405;53.212;5.660;2022-08-25T08:25:41;32.30;93.80
52495;DHT22;38405;53.212;5.660;2022-08-25T08:28:07;32.40;93.60
52495;DHT22;38405;53.212;5.660;2022-08-25T08:30:33;32.30;93.30
52495;DHT22;38405;53.212;5.660;2022-08-25T08:33:00;32.20;93.20
52495;DHT22;38405;53.212;5.660;2022-08-25T08:35:26;32.60;93.40
52495;DHT22;38405;53.212;5.660;2022-08-25T08:37:51;32.40;92.70
52495;DHT22;38405;53.212;5.660;2022-08-25T08:40:18;32.30;92.60
52495;DHT22;38405;53.212;5.660;2022-08-25T08:42:55;32.30;93.20
52495;DHT22;38405;53.212;5.660;2022-08-25T08:45:56;32.60;93.10
52495;DHT22;38405;53.212;5.660;2022-08-25T08:51:32;33.10;92.10
52495;DHT22;38405;53.212;5.660;2022-08-25T08:54:09;33.10;91.60
52495;DHT22;38405;53.212;5.660;2022-08-25T08:56:41;33.10;91.90
52495;DHT22;38405;53.212;5.660;2022-08-25T08:59:23;33.00;91.50
52495;DHT22;38405;53.212;5.660;2022-08-25T09:01:56;33.10;91.30
52495;DHT22;38405;53.212;5.660;2022-08-25T09:04:41;33.10;91.50
52495;DHT22;38405;53.212;5.660;2022-08-25T09:07:25;33.10;91.00
52495;DHT22;38405;53.212;5.660;2022-08-25T09:09:55;32.90;91.20
52495;DHT22;38405;53.212;5.660;2022-08-25T09:12:42;33.10;91.40
52495;DHT22;38405;53.212;5.660;2022-08-25T09:15:32;32.80;91.10
52495;DHT22;38405;53.212;5.660;2022-08-25T09:18:33;32.80;91.20
52495;DHT22;38405;53.212;5.660;2022-08-25T09:21:36;33.00;91.20
52495;DHT22;38405;53.212;5.660;2022-08-25T09:24:18;33.00;89.90
52495;DHT22;38405;53.212;5.660;2022-08-25T09:30:06;32.50;91.20
52495;DHT22;38405;53.212;5.660;2022-08-25T09:32:44;32.20;90.40
52495;DHT22;38405;53.212;5.660;2022-08-25T09:35:23;32.10;90.40
52495;DHT22;38405;53.212;5.660;2022-08-25T09:38:06;31.80;90.10
52495;DHT22;38405;53.212;5.660;2022-08-25T09:40:35;31.50;90.40
52495;DHT22;38405;53.212;5.660;2022-08-25T09:43:08;31.20;91.00
52495;DHT22;38405;53.212;5.660;2022-08-25T09:45:44;31.00;90.60
52495;DHT22;38405;53.212;5.660;2022-08-25T09:48:41;31.10;91.40
52495;DHT22;38405;53.212;5.660;2022-08-25T09:51:25;31.10;90.00
52495;DHT22;38405;53.212;5.660;2022-08-25T09:56:26;30.90;90.40
52495;DHT22;38405;53.212;5.660;2022-08-25T09:58:53;30.80;90.10
52495;DHT22;38405;53.212;5.660;2022-08-25T10:01:21;30.90;90.60
52495;DHT22;38405;53.212;5.660;2022-08-25T10:03:56;30.90;90.00
52495;DHT22;38405;53.212;5.660;2022-08-25T10:06:24;31.00;88.90
52495;DHT22;38405;53.212;5.660;2022-08-25T10:08:57;31.00;88.80
52495;DHT22;38405;53.212;5.660;2022-08-25T10:11:36;31.10;88.50
52495;DHT22;38405;53.212;5.660;2022-08-25T10:16:43;31.20;89.10
52495;DHT22;38405;53.212;5.660;2022-08-25T10:19:26;31.20;89.20
52495;DHT22;38405;53.212;5.660;2022-08-25T10:22:11;31.40;88.00
52495;DHT22;38405;53.212;5.660;2022-08-25T10:24:44;31.40;84.90
52495;DHT22;38405;53.212;5.660;2022-08-25T10:38:59;31.60;83.90
52495;DHT22;38405;53.212;5.660;2022-08-25T10:56:24;31.60;84.50
52495;DHT22;38405;53.212;5.660;2022-08-25T11:04:39;31.60;85.80
52495;DHT22;38405;53.212;5.660;2022-08-25T11:07:33;31.60;85.90
52495;DHT22;38405;53.212;5.660;2022-08-25T11:10:05;31.70;86.00
52495;DHT22;38405;53.212;5.660;2022-08-25T11:13:05;31.60;84.80
52495;DHT22;38405;53.212;5.660;2022-08-25T11:15:55;31.60;84.80
52495;DHT22;38405;53.212;5.660;2022-08-25T11:18:25;31.60;84.60
52495;DHT22;38405;53.212;5.660;2022-08-25T11:21:31;31.60;84.40
52495;DHT22;38405;53.212;5.660;2022-08-25T11:24:33;31.60;83.60
52495;DHT22;38405;53.212;5.660;2022-08-25T11:27:04;31.80;84.10
52495;DHT22;38405;53.212;5.660;2022-08-25T11:29:33;31.90;84.60
52495;DHT22;38405;53.212;5.660;2022-08-25T11:32:01;32.10;83.70
52495;DHT22;38405;53.212;5.660;2022-08-25T11:34:34;31.90;84.00
52495;DHT22;38405;53.212;5.660;2022-08-25T11:37:06;31.90;82.80
52495;DHT22;38405;53.212;5.660;2022-08-25T11:45:56;32.00;81.80
52495;DHT22;38405;53.212;5.660;2022-08-25T11:51:40;31.80;79.90
52495;DHT22;38405;53.212;5.660;2022-08-25T12:02:36;31.80;81.80
52495;DHT22;38405;53.212;5.660;2022-08-25T12:08:04;31.60;80.60
52495;DHT22;38405;53.212;5.660;2022-08-25T12:13:26;31.70;81.90
52495;DHT22;38405;53.212;5.660;2022-08-25T12:16:02;31.80;82.30
52495;DHT22;38405;53.212;5.660;2022-08-25T12:23:38;31.60;82.30
52495;DHT22;38405;53.212;5.660;2022-08-25T12:26:35;31.70;82.70
52495;DHT22;38405;53.212;5.660;2022-08-25T12:37:11;31.50;81.30
52495;DHT22;38405;53.212;5.660;2022-08-25T12:39:44;31.40;82.20
52495;DHT22;38405;53.212;5.660;2022-08-25T12:42:36;31.40;81.20
52495;DHT22;38405;53.212;5.660;2022-08-25T12:45:11;31.40;81.30
52495;DHT22;38405;53.212;5.660;2022-08-25T12:47:39;31.30;82.30
52495;DHT22;38405;53.212;5.660;2022-08-25T12:55:53;31.20;82.00
52495;DHT22;38405;53.212;5.660;2022-08-25T13:06:47;31.10;80.90
52495;DHT22;38405;53.212;5.660;2022-08-25T13:09:45;31.10;82.30
52495;DHT22;38405;53.212;5.660;2022-08-25T13:12:28;31.00;79.40
52495;DHT22;38405;53.212;5.660;2022-08-25T13:14:56;31.10;82.50
52495;DHT22;38405;53.212;5.660;2022-08-25T13:17:33;31.10;82.40
52495;DHT22;38405;53.212;5.660;2022-08-25T13:20:18;31.20;83.60
52495;DHT22;38405;53.212;5.660;2022-08-25T13:22:50;31.20;82.70
52495;DHT22;38405;53.212;5.660;2022-08-25T13:25:18;31.00;81.10
52495;DHT22;38405;53.212;5.660;2022-08-25T13:27:54;30.90;81.40
52495;DHT22;38405;53.212;5.660;2022-08-25T13:30:33;30.90;83.20
52495;DHT22;38405;53.212;5.660;2022-08-25T13:33:14;30.90;82.50
52495;DHT22;38405;53.212;5.660;2022-08-25T13:35:50;30.90;81.40
52495;DHT22;38405;53.212;5.660;2022-08-25T13:38:36;30.90;78.90
52495;DHT22;38405;53.212;5.660;2022-08-25T13:41:03;30.90;79.40
52495;DHT22;38405;53.212;5.660;2022-08-25T13:43:29;30.90;79.80
52495;DHT22;38405;53.212;5.660;2022-08-25T13:45:55;30.90;79.80
52495;DHT22;38405;53.212;5.660;2022-08-25T13:48:36;30.90;79.50
52495;DHT22;38405;53.212;5.660;2022-08-25T13:51:26;30.90;79.60
52495;DHT22;38405;53.212;5.660;2022-08-25T13:54:06;30.90;79.60
52495;DHT22;38405;53.212;5.660;2022-08-25T13:56:38;30.80;79.90
52495;DHT22;38405;53.212;5.660;2022-08-25T13:59:17;30.90;80.80
52495;DHT22;38405;53.212;5.660;2022-08-25T14:01:46;30.90;79.50
52495;DHT22;38405;53.212;5.660;2022-08-25T14:04:23;30.80;79.60
52495;DHT22;38405;53.212;5.660;2022-08-25T14:10:07;30.80;77.60
52495;DHT22;38405;53.212;5.660;2022-08-25T14:12:46;30.80;77.10
52495;DHT22;38405;53.212;5.660;2022-08-25T14:15:27;30.90;79.60
52495;DHT22;38405;53.212;5.660;2022-08-25T14:18:05;30.80;78.70
52495;DHT22;38405;53.212;5.660;2022-08-25T14:20:36;30.90;79.00
52495;DHT22;38405;53.212;5.660;2022-08-25T14:23:06;30.80;79.80
52495;DHT22;38405;53.212;5.660;2022-08-25T14:25:32;30.90;79.30
52495;DHT22;38405;53.212;5.660;2022-08-25T14:28:04;30.90;79.80
52495;DHT22;38405;53.212;5.660;2022-08-25T14:30:33;30.90;79.70
52495;DHT22;38405;53.212;5.660;2022-08-25T14:32:59;30.90;78.80
52495;DHT22;38405;53.212;5.660;2022-08-25T14:35:26;30.70;78.90
52495;DHT22;38405;53.212;5.660;2022-08-25T14:37:51;30.70;79.40
52495;DHT22;38405;53.212;5.660;2022-08-25T14:40:17;30.70;78.60
52495;DHT22;38405;53.212;5.660;2022-08-25T14:42:47;30.80;78.90
52495;DHT22;38405;53.212;5.660;2022-08-25T14:45:17;30.80;78.10
52495;DHT22;38405;53.212;5.660;2022-08-25T14:47:44;30.80;77.70
52495;DHT22;38405;53.212;5.660;2022-08-25T14:50:11;30.80;78.10
52495;DHT22;38405;53.212;5.660;2022-08-25T14:52:37;30.90;78.10
52495;DHT22;38405;53.212;5.660;2022-08-25T14:55:03;30.90;78.80
52495;DHT22;38405;53.212;5.660;2022-08-25T14:57:29;30.90;78.70
52495;DHT22;38405;53.212;5.660;2022-08-25T14:59:54;30.90;78.90
52495;DHT22;38405;53.212;5.660;2022-08-25T15:02:22;31.00;78.80
52495;DHT22;38405;53.212;5.660;2022-08-25T15:04:54;31.00;78.00
52495;DHT22;38405;53.212;5.660;2022-08-25T15:07:20;31.10;79.00
52495;DHT22;38405;53.212;5.660;2022-08-25T15:10:05;31.10;78.50
52495;DHT22;38405;53.212;5.660;2022-08-25T15:12:32;31.10;77.90
52495;DHT22;38405;53.212;5.660;2022-08-25T15:14:58;31.10;77.90
52495;DHT22;38405;53.212;5.660;2022-08-25T15:17:26;31.10;78.30
52495;DHT22;38405;53.212;5.660;2022-08-25T15:19:52;31.00;77.80
52495;DHT22;38405;53.212;5.660;2022-08-25T15:22:18;31.10;77.70
52495;DHT22;38405;53.212;5.660;2022-08-25T15:24:44;31.00;78.10
52495;DHT22;38405;53.212;5.660;2022-08-25T15:27:11;31.00;79.00
52495;DHT22;38405;53.212;5.660;2022-08-25T15:29:38;31.00;78.50
52495;DHT22;38405;53.212;5.660;2022-08-25T15:32:06;31.00;78.00
52495;DHT22;38405;53.212;5.660;2022-08-25T15:34:32;31.00;77.90
52495;DHT22;38405;53.212;5.660;2022-08-25T15:37:05;30.90;78.30
52495;DHT22;38405;53.212;5.660;2022-08-25T15:39:31;30.90;77.30
52495;DHT22;38405;53.212;5.660;2022-08-25T15:41:56;30.90;77.90
52495;DHT22;38405;53.212;5.660;2022-08-25T15:44:22;30.90;77.50
52495;DHT22;38405;53.212;5.660;2022-08-25T15:46:47;30.90;78.30
52495;DHT22;38405;53.212;5.660;2022-08-25T15:49:14;30.90;78.50
52495;DHT22;38405;53.212;5.660;2022-08-25T15:51:39;30.90;78.40
52495;DHT22;38405;53.212;5.660;2022-08-25T15:54:06;30.90;78.00
52495;DHT22;38405;53.212;5.660;2022-08-25T15:56:32;30.90;77.70
52495;DHT22;38405;53.212;5.660;2022-08-25T15:58:57;30.90;77.40
52495;DHT22;38405;53.212;5.660;2022-08-25T16:01:26;30.90;78.10
52495;DHT22;38405;53.212;5.660;2022-08-25T16:03:52;30.80;77.90
52495;DHT22;38405;53.212;5.660;2022-08-25T16:06:18;30.80;78.30
52495;DHT22;38405;53.212;5.660;2022-08-25T16:08:44;30.70;78.60
52495;DHT22;38405;53.212;5.660;2022-08-25T16:11:22;30.80;79.10
52495;DHT22;38405;53.212;5.660;2022-08-25T16:13:49;30.70;77.50
52495;DHT22;38405;53.212;5.660;2022-08-25T16:16:16;30.70;78.90
52495;DHT22;38405;53.212;5.660;2022-08-25T16:18:43;30.70;79.30
52495;DHT22;38405;53.212;5.660;2022-08-25T16:21:11;30.60;79.10
52495;DHT22;38405;53.212;5.660;2022-08-25T16:23:37;30.70;80.10
52495;DHT22;38405;53.212;5.660;2022-08-25T16:26:07;30.60;79.70
52495;DHT22;38405;53.212;5.660;2022-08-25T16:28:34;30.60;79.50
52495;DHT22;38405;53.212;5.660;2022-08-25T16:31:00;30.60;79.10
52495;DHT22;38405;53.212;5.660;2022-08-25T16:33:26;30.50;79.30
52495;DHT22;38405;53.212;5.660;2022-08-25T16:35:52;30.50;79.40
52495;DHT22;38405;53.212;5.660;2022-08-25T16:38:17;30.40;79.80
52495;DHT22;38405;53.212;5.660;2022-08-25T16:40:44;30.40;80.30
52495;DHT22;38405;53.212;5.660;2022-08-25T16:43:10;30.30;81.30
52495;DHT22;38405;53.212;5.660;2022-08-25T16:45:36;30.20;81.70
52495;DHT22;38405;53.212;5.660;2022-08-25T16:48:03;30.20;81.10
52495;DHT22;38405;53.212;5.660;2022-08-25T16:50:29;30.10;80.70
52495;DHT22;38405;53.212;5.660;2022-08-25T16:52:56;30.00;80.80
52495;DHT22;38405;53.212;5.660;2022-08-25T16:55:40;30.00;81.10
52495;DHT22;38405;53.212;5.660;2022-08-25T16:58:09;29.90;81.30
52495;DHT22;38405;53.212;5.660;2022-08-25T17:00:36;29.90;81.90
52495;DHT22;38405;53.212;5.660;2022-08-25T17:03:02;29.80;82.80
52495;DHT22;38405;53.212;5.660;2022-08-25T17:05:31;29.80;84.40
52495;DHT22;38405;53.212;5.660;2022-08-25T17:08:01;29.70;85.60
52495;DHT22;38405;53.212;5.660;2022-08-25T17:10:45;29.60;86.30
52495;DHT22;38405;53.212;5.660;2022-08-25T17:13:11;29.50;86.10
52495;DHT22;38405;53.212;5.660;2022-08-25T17:15:42;29.40;84.80
52495;DHT22;38405;53.212;5.660;2022-08-25T17:18:09;29.40;84.80
52495;DHT22;38405;53.212;5.660;2022-08-25T17:20:35;29.30;85.20
52495;DHT22;38405;53.212;5.660;2022-08-25T17:23:02;29.30;86.10
52495;DHT22;38405;53.212;5.660;2022-08-25T17:25:33;29.10;87.30
52495;DHT22;38405;53.212;5.660;2022-08-25T17:27:59;29.00;88.70
52495;DHT22;38405;53.212;5.660;2022-08-25T17:30:24;28.90;89.10